Terminal Aerodrome Forecast
Issued by NWS

Home | Current Version | Previous Version | Graphics & Text | Print | Product List | Glossary On
Versions: 1 2 3 4 5 6 7 8 9 10 11 12 13
516
FTUS45 KGGW 211724
TAFSDY
TAF
KSDY 211724Z 2118/2218 28005KT P6SM SKC
     FM221300 21008KT P6SM BKN070 WS020/27035KT
     FM221700 27013G22KT P6SM SCT022=

USA.gov is the U.S. government's official web portal to all federal, state and local government web resources and services.